Observation data for Reese Center on 07/12/2018      Previous  Date       Current Mesonet Observations  Soil Data  Daily Summary Page  Observations in Plain Language
KREE 120505Z 20005KT 27/14 A3012 RMK A01 T02670136  RH  045%=      5-min Rain = 0
KREE 120510Z 20004KT 27/14 A3012 RMK A01 T02670136  RH  045%=      5-min Rain = 0
KREE 120515Z 21003KT 27/14 A3012 RMK A01 T02670136  RH  045%=      5-min Rain = 0
KREE 120520Z 20005KT 27/14 A3012 RMK A01 T02660143  RH  048%=      5-min Rain = 0
KREE 120525Z 15004KT 26/14 A3011 RMK A01 T02640142  RH  048%=      5-min Rain = 0
KREE 120530Z 15004KT 26/14 A3011 RMK A01 T02640140  RH  047%=      5-min Rain = 0
KREE 120535Z 15005KT 26/14 A3011 RMK A01 T02630140  RH  048%=      5-min Rain = 0
KREE 120540Z 15005KT 26/14 A3011 RMK A01 T02610140  RH  048%=      5-min Rain = 0
KREE 120545Z 15005KT 26/14 A3011 RMK A01 T02600141  RH  049%=      5-min Rain = 0
KREE 120550Z 16005KT 26/14 A3011 RMK A01 T02600141  RH  049%=      5-min Rain = 0
KREE 120555Z 16007KT 26/14 A3011 RMK A01 T02610137  RH  047%=      5-min Rain = 0
KREE 120600Z 16007KT 26/14 A3011 RMK A01 T02610138  RH  048%=      5-min Rain = 0
KREE 120605Z 16008KT 26/14 A3011 RMK A01 T02600138  RH  048%=      5-min Rain = 0
KREE 120610Z 17008KT 26/14 A3011 RMK A01 T02590138  RH  048%=      5-min Rain = 0
KREE 120615Z 17009KT 26/14 A3011 RMK A01 T02600135  RH  047%=      5-min Rain = 0
KREE 120620Z 17009KT 26/13 A3011 RMK A01 T02610133  RH  046%=      5-min Rain = 0
KREE 120625Z 17009KT 26/13 A301 RMK A01 T02610130  RH  045%=      5-min Rain = 0
KREE 120630Z 18009KT 26/13 A301 RMK A01 T02620127  RH  044%=      5-min Rain = 0
KREE 120635Z 17009KT 26/13 A301 RMK A01 T02620125  RH  043%=      5-min Rain = 0
KREE 120640Z 17008KT 26/13 A301 RMK A01 T02610128  RH  045%=      5-min Rain = 0
KREE 120645Z 19010KT 26/12 A301 RMK A01 T02600124  RH  044%=      5-min Rain = 0
KREE 120650Z 19010KT 26/12 A301 RMK A01 T02630121  RH  042%=      5-min Rain = 0
KREE 120655Z 20010KT 26/12 A301 RMK A01 T02620121  RH  042%=      5-min Rain = 0
KREE 120700Z 19009KT 26/12 A301 RMK A01 T02610121  RH  042%=      5-min Rain = 0
KREE 120705Z 19009KT 26/12 A301 RMK A01 T02600120  RH  043%=      5-min Rain = 0
KREE 120710Z 18009KT 26/12 A301 RMK A01 T02600119  RH  042%=      5-min Rain = 0
KREE 120715Z 18008KT 26/12 A301 RMK A01 T02610118  RH  042%=      5-min Rain = 0
KREE 120720Z 17008KT 26/12 A301 RMK A01 T02600118  RH  042%=      5-min Rain = 0
KREE 120725Z 18007KT 26/12 A301 RMK A01 T02580119  RH  043%=      5-min Rain = 0
KREE 120730Z 19008KT 26/12 A301 RMK A01 T02590117  RH  042%=      5-min Rain = 0
KREE 120735Z 19009KT 26/12 A301 RMK A01 T02600117  RH  042%=      5-min Rain = 0
KREE 120740Z 19008KT 26/12 A301 RMK A01 T02590117  RH  042%=      5-min Rain = 0
KREE 120745Z 19007KT 26/12 A3011 RMK A01 T02580117  RH  042%=      5-min Rain = 0
KREE 120750Z 19007KT 26/12 A3011 RMK A01 T02570118  RH  043%=      5-min Rain = 0
KREE 120755Z 21006KT 26/12 A3011 RMK A01 T02560119  RH  043%=      5-min Rain = 0
KREE 120800Z 22006KT 25/12 A3011 RMK A01 T02540120  RH  044%=      5-min Rain = 0
KREE 120805Z 24005KT 25/12 A3011 RMK A01 T02520121  RH  045%=      5-min Rain = 0
KREE 120810Z 29007KT 25/12 A3011 RMK A01 T02500123  RH  046%=      5-min Rain = 0
KREE 120815Z 31010G15KT 25/14 A3011 RMK A01 T02460139  RH  052%=      5-min Rain = 0
KREE 120820Z 31010KT 25/13 A3012 RMK A01 T02510129  RH  048%=      5-min Rain = 0
KREE 120825Z 33011KT 25/14 A3012 RMK A01 T02520136  RH  049%=      5-min Rain = 0
KREE 120830Z 34011G19KT 25/16 A3012 RMK A01 T02450155  RH  059%=      5-min Rain = 0
KREE 120835Z 35008KT 24/16 A3012 RMK A01 T02390158  RH  062%=      5-min Rain = 0
KREE 120840Z 35010KT 24/16 A3012 RMK A01 T02360161  RH  064%=      5-min Rain = 0
KREE 120845Z 35010KT 23/16 A3012 RMK A01 T02340163  RH  066%=      5-min Rain = 0
KREE 120850Z 35009KT 23/16 A3012 RMK A01 T02320164  RH  067%=      5-min Rain = 0
KREE 120855Z 01010KT 23/16 A3012 RMK A01 T02300164  RH  068%=      5-min Rain = 0
KREE 120900Z 02007KT 23/16 A3013 RMK A01 T02300164  RH  068%=      5-min Rain = 0
KREE 120905Z 01009KT 23/16 A3013 RMK A01 T02290163  RH  068%=      5-min Rain = 0
KREE 120910Z 02008KT 23/16 A3013 RMK A01 T02280163  RH  068%=      5-min Rain = 0
KREE 120915Z 01010KT 23/16 A3013 RMK A01 T02280162  RH  068%=      5-min Rain = 0
KREE 120920Z 01009KT 23/16 A3013 RMK A01 T02270161  RH  068%=      5-min Rain = 0
KREE 120925Z 01006KT 23/16 A3013 RMK A01 T02260161  RH  068%=      5-min Rain = 0
KREE 120930Z 00007KT 23/16 A3013 RMK A01 T02250161  RH  068%=      5-min Rain = 0
KREE 120935Z 00007KT 22/16 A3013 RMK A01 T02240161  RH  069%=      5-min Rain = 0
KREE 120940Z 01008KT 22/16 A3013 RMK A01 T02220162  RH  071%=      5-min Rain = 0
KREE 120945Z 02007KT 22/16 A3013 RMK A01 T02200162  RH  071%=      5-min Rain = 0
KREE 120950Z 03006KT 22/16 A3013 RMK A01 T02190163  RH  072%=      5-min Rain = 0
KREE 120955Z 04006KT 22/16 A3013 RMK A01 T02180163  RH  073%=      5-min Rain = 0
KREE 121000Z 04007KT 22/16 A3013 RMK A01 T02180163  RH  073%=      5-min Rain = 0
KREE 121005Z 03006KT 22/16 A3013 RMK A01 T02170163  RH  073%=      5-min Rain = 0
KREE 121010Z 04006KT 22/16 A3013 RMK A01 T02170163  RH  073%=      5-min Rain = 0
KREE 121015Z 04005KT 22/16 A3013 RMK A01 T02160163  RH  073%=      5-min Rain = 0
KREE 121020Z 04005KT 22/16 A3013 RMK A01 T02160163  RH  074%=      5-min Rain = 0
KREE 121025Z 05005KT 22/16 A3013 RMK A01 T02160163  RH  074%=      5-min Rain = 0
KREE 121030Z 06004KT 22/16 A3013 RMK A01 T02150162  RH  073%=      5-min Rain = 0
KREE 121035Z 07004KT 21/16 A3014 RMK A01 T02130162  RH  074%=      5-min Rain = 0
KREE 121040Z 06005KT 21/16 A3014 RMK A01 T02130164  RH  075%=      5-min Rain = 0
KREE 121045Z 07006KT 21/16 A3014 RMK A01 T02120164  RH  076%=      5-min Rain = 0
KREE 121050Z 06006KT 21/17 A3014 RMK A01 T02100165  RH  077%=      5-min Rain = 0
KREE 121055Z 06005KT 21/17 A3014 RMK A01 T02100165  RH  077%=      5-min Rain = 0
KREE 121100Z 07004KT 21/17 A3014 RMK A01 T02090165  RH  078%=      5-min Rain = 0
KREE 121105Z 07005KT 21/17 A3014 RMK A01 T02070165  RH  079%=      5-min Rain = 0
KREE 121110Z 07005KT 21/17 A3015 RMK A01 T02070165  RH  079%=      5-min Rain = 0
KREE 121115Z 06005KT 21/17 A3015 RMK A01 T02070165  RH  079%=      5-min Rain = 0
KREE 121120Z 06005KT 21/17 A3015 RMK A01 T02080166  RH  079%=      5-min Rain = 0
KREE 121125Z 06005KT 21/17 A3015 RMK A01 T02070165  RH  079%=      5-min Rain = 0
KREE 121130Z 07004KT 21/16 A3015 RMK A01 T02050164  RH  080%=      5-min Rain = 0
KREE 121135Z 07004KT 20/17 A3015 RMK A01 T02040165  RH  080%=      5-min Rain = 0
KREE 121140Z 06004KT 21/17 A3015 RMK A01 T02050165  RH  080%=      5-min Rain = 0
KREE 121145Z 06003KT 21/16 A3015 RMK A01 T02050164  RH  079%=      5-min Rain = 0
KREE 121150Z 06003KT 20/16 A3015 RMK A01 T02040164  RH  080%=      5-min Rain = 0
KREE 121155Z 05003KT 21/17 A3015 RMK A01 T02050166  RH  080%=      5-min Rain = 0
KREE 121200Z 05004KT 21/17 A3016 RMK A01 T02060165  RH  079%=      5-min Rain = 0
KREE 121205Z 06005KT 21/17 A3016 RMK A01 T02060165  RH  079%=      5-min Rain = 0
KREE 121210Z 05005KT 21/17 A3016 RMK A01 T02090167  RH  079%=      5-min Rain = 0
KREE 121215Z 04005KT 21/17 A3016 RMK A01 T02100167  RH  078%=      5-min Rain = 0
KREE 121220Z 03004KT 21/17 A3016 RMK A01 T02120168  RH  078%=      5-min Rain = 0
KREE 121225Z 04003KT 22/17 A3016 RMK A01 T02150168  RH  076%=      5-min Rain = 0
KREE 121230Z 02003KT 22/17 A3016 RMK A01 T02170169  RH  076%=      5-min Rain = 0
KREE 121235Z 00003KT 22/17 A3017 RMK A01 T02170169  RH  076%=      5-min Rain = 0
KREE 121240Z 35004KT 22/17 A3017 RMK A01 T02190170  RH  075%=      5-min Rain = 0
KREE 121245Z 34004KT 22/17 A3017 RMK A01 T02210170  RH  075%=      5-min Rain = 0
KREE 121250Z 33006KT 22/17 A3017 RMK A01 T02230171  RH  074%=      5-min Rain = 0
KREE 121255Z 32007KT 23/17 A3017 RMK A01 T02250171  RH  073%=      5-min Rain = 0
KREE 121300Z 32010KT 23/17 A3017 RMK A01 T02270169  RH  072%=      5-min Rain = 0
KREE 121305Z 32011KT 23/17 A3017 RMK A01 T02280169  RH  071%=      5-min Rain = 0
KREE 121310Z 31010KT 23/17 A3018 RMK A01 T02290171  RH  071%=      5-min Rain = 0
KREE 121315Z 31010KT 23/17 A3018 RMK A01 T02310170  RH  070%=      5-min Rain = 0
KREE 121320Z 31010KT 23/17 A3018 RMK A01 T02330169  RH  069%=      5-min Rain = 0
KREE 121325Z 32010KT 24/17 A3018 RMK A01 T02360166  RH  066%=      5-min Rain = 0
KREE 121330Z 32009KT 24/17 A3017 RMK A01 T02400166  RH  065%=      5-min Rain = 0
KREE 121335Z 32009KT 24/17 A3017 RMK A01 T02410168  RH  065%=      5-min Rain = 0
KREE 121340Z 32009KT 24/17 A3017 RMK A01 T02410170  RH  066%=      5-min Rain = 0
KREE 121345Z 31011KT 24/17 A3018 RMK A01 T02430169  RH  065%=      5-min Rain = 0
KREE 121350Z 31010KT 24/17 A3018 RMK A01 T02400169  RH  066%=      5-min Rain = 0
KREE 121355Z 31010KT 24/17 A3017 RMK A01 T02410167  RH  065%=      5-min Rain = 0
KREE 121400Z 31010KT 24/17 A3017 RMK A01 T02440169  RH  064%=      5-min Rain = 0
KREE 121405Z 31010KT 25/17 A3018 RMK A01 T02450168  RH  063%=      5-min Rain = 0
KREE 121410Z 30010KT 25/17 A3018 RMK A01 T02460168  RH  063%=      5-min Rain = 0
KREE 121415Z 29011KT 25/16 A3018 RMK A01 T02490164  RH  061%=      5-min Rain = 0
KREE 121420Z 30010KT 25/16 A3018 RMK A01 T02500163  RH  059%=      5-min Rain = 0
KREE 121425Z 30009KT 25/16 A3018 RMK A01 T02520163  RH  059%=      5-min Rain = 0
KREE 121430Z 30008KT 26/16 A3018 RMK A01 T02550161  RH  057%=      5-min Rain = 0
KREE 121435Z 30009KT 26/16 A3018 RMK A01 T02580158  RH  055%=      5-min Rain = 0
KREE 121440Z 31008KT 26/16 A3018 RMK A01 T02590158  RH  055%=      5-min Rain = 0
KREE 121445Z 30007KT 26/16 A3018 RMK A01 T02610157  RH  054%=      5-min Rain = 0
KREE 121450Z 30007KT 26/16 A3018 RMK A01 T02630156  RH  053%=      5-min Rain = 0
KREE 121455Z 30008KT 27/15 A3018 RMK A01 T02660154  RH  051%=      5-min Rain = 0
KREE 121500Z 30007KT 27/15 A3018 RMK A01 T02670153  RH  051%=      5-min Rain = 0
KREE 121505Z 30007KT 27/15 A3018 RMK A01 T02680151  RH  050%=      5-min Rain = 0
KREE 121510Z 30010KT 27/16 A3018 RMK A01 T02680160  RH  052%=      5-min Rain = 0
KREE 121515Z 29009KT 27/16 A3018 RMK A01 T02660157  RH  052%=      5-min Rain = 0
KREE 121520Z 29009KT 27/16 A3018 RMK A01 T02650155  RH  052%=      5-min Rain = 0
KREE 121525Z 27008KT 27/15 A3018 RMK A01 T02660151  RH  050%=      5-min Rain = 0
KREE 121530Z 27009G15KT 27/15 A3018 RMK A01 T02700152  RH  050%=      5-min Rain = 0
KREE 121535Z 28012G17KT 27/15 A3018 RMK A01 T02690153  RH  050%=      5-min Rain = 0
KREE 121540Z 27011KT 27/15 A3018 RMK A01 T02670154  RH  051%=      5-min Rain = 0
KREE 121545Z 27010KT 26/15 A3018 RMK A01 T02630153  RH  052%=      5-min Rain = 0
KREE 121550Z 27011KT 26/15 A3018 RMK A01 T02600149  RH  051%=      5-min Rain = 0
KREE 121555Z 27010KT 26/15 A3018 RMK A01 T02590147  RH  051%=      5-min Rain = 0
KREE 121600Z 27010KT 26/15 A3018 RMK A01 T02590146  RH  051%=      5-min Rain = 0
KREE 121605Z 25008G13KT 26/14 A3018 RMK A01 T02610144  RH  049%=      5-min Rain = 0
KREE 121610Z 26009KT 26/14 A3018 RMK A01 T02630141  RH  048%=      5-min Rain = 0
KREE 121615Z 26009KT 27/14 A3018 RMK A01 T02660141  RH  047%=      5-min Rain = 0
KREE 121620Z 27006G12KT 27/14 A3018 RMK A01 T02660141  RH  047%=      5-min Rain = 0
KREE 121625Z 25009KT 27/14 A3018 RMK A01 T02700140  RH  046%=      5-min Rain = 0
KREE 121630Z 22005G10KT 28/13 A3018 RMK A01 T02750134  RH  043%=      5-min Rain = 0
KREE 121635Z 22006KT 27/13 A3018 RMK A01 T02730134  RH  043%=      5-min Rain = 0
KREE 121640Z 24007G12KT 27/13 A3018 RMK A01 T02740133  RH  043%=      5-min Rain = 0
KREE 121645Z 24007KT 27/13 A3018 RMK A01 T02740132  RH  042%=      5-min Rain = 0
KREE 121650Z 23006KT 27/14 A3018 RMK A01 T02720135  RH  044%=      5-min Rain = 0
KREE 121655Z 25007KT 27/14 A3018 RMK A01 T02710135  RH  044%=      5-min Rain = 0
KREE 121700Z 22008KT 27/14 A3018 RMK A01 T02740136  RH  043%=      5-min Rain = 0
KREE 121705Z 23006KT 27/14 A3018 RMK A01 T02740137  RH  044%=      5-min Rain = 0
KREE 121710Z 23007KT 28/14 A3017 RMK A01 T02760136  RH  043%=      5-min Rain = 0
KREE 121715Z 21007G13KT 28/14 A3017 RMK A01 T02780136  RH  043%=      5-min Rain = 0
KREE 121720Z 21008KT 28/14 A3017 RMK A01 T02800135  RH  042%=      5-min Rain = 0
KREE 121725Z 21005KT 28/14 A3017 RMK A01 T02800136  RH  042%=      5-min Rain = 0
KREE 121730Z 23006G13KT 28/14 A3017 RMK A01 T02830136  RH  041%=      5-min Rain = 0
KREE 121735Z 20006G14KT 29/14 A3017 RMK A01 T02870136  RH  041%=      5-min Rain = 0
KREE 121740Z 18008G13KT 29/13 A3017 RMK A01 T02910134  RH  039%=      5-min Rain = 0
KREE 121745Z 17006KT 30/14 A3016 RMK A01 T02980135  RH  038%=      5-min Rain = 0
KREE 121750Z 20005KT 30/14 A3016 RMK A01 T02980135  RH  038%=      5-min Rain = 0
KREE 121755Z 20005KT 30/13 A3016 RMK A01 T03040134  RH  036%=      5-min Rain = 0
KREE 121800Z 22008KT 30/13 A3016 RMK A01 T03030133  RH  036%=      5-min Rain = 0
KREE 121805Z 21008KT 30/13 A3016 RMK A01 T03000134  RH  037%=      5-min Rain = 0
KREE 121810Z 21009KT 30/13 A3016 RMK A01 T03000134  RH  037%=      5-min Rain = 0
KREE 121815Z 22009G14KT 30/13 A3016 RMK A01 T02980134  RH  037%=      5-min Rain = 0
KREE 121820Z 19005G12KT 30/14 A3015 RMK A01 T03000135  RH  037%=      5-min Rain = 0
KREE 121825Z 19010G16KT 31/13 A3015 RMK A01 T03090129  RH  034%=      5-min Rain = 0
KREE 121830Z 19009G14KT 32/13 A3015 RMK A01 T03170126  RH  032%=      5-min Rain = 0
KREE 121835Z 19011G19KT 32/12 A3015 RMK A01 T03170124  RH  031%=      5-min Rain = 0
KREE 121840Z 22010KT 32/13 A3015 RMK A01 T03150128  RH  033%=      5-min Rain = 0
KREE 121845Z 20011G17KT 32/12 A3015 RMK A01 T03210123  RH  031%=      5-min Rain = 0
KREE 121850Z 20009G17KT 32/12 A3015 RMK A01 T03220117  RH  029%=      5-min Rain = 0
KREE 121855Z 20015G23KT 33/12 A3014 RMK A01 T03280116  RH  028%=      5-min Rain = 0
KREE 121900Z 23009G18KT 32/12 A3015 RMK A01 T03200121  RH  030%=      5-min Rain = 0
KREE 121905Z 20008KT 32/12 A3014 RMK A01 T03150122  RH  031%=      5-min Rain = 0
KREE 121910Z 23010G16KT 32/12 A3014 RMK A01 T03180119  RH  030%=      5-min Rain = 0
KREE 121915Z 21011G16KT 32/11 A3014 RMK A01 T03150114  RH  030%=      5-min Rain = 0
KREE 121920Z 21009KT 31/12 A3014 RMK A01 T03130115  RH  030%=      5-min Rain = 0
KREE 121925Z 23010G15KT 31/12 A3014 RMK A01 T03090122  RH  032%=      5-min Rain = 0
KREE 121930Z 22011G16KT 31/12 A3014 RMK A01 T03100122  RH  032%=      5-min Rain = 0
KREE 121935Z 21011KT 32/12 A3014 RMK A01 T03150118  RH  031%=      5-min Rain = 0
KREE 121940Z 19012G17KT 32/11 A3014 RMK A01 T03170108  RH  028%=      5-min Rain = 0
KREE 121945Z 19011G17KT 32/11 A3013 RMK A01 T03170108  RH  028%=      5-min Rain = 0
KREE 121950Z 19012KT 32/11 A3013 RMK A01 T03180110  RH  028%=      5-min Rain = 0
KREE 121955Z 20013G19KT 32/11 A3013 RMK A01 T03230111  RH  028%=      5-min Rain = 0
KREE 122000Z 19011G17KT 32/11 A3012 RMK A01 T03230112  RH  028%=      5-min Rain = 0
KREE 122005Z 17011G17KT 32/11 A3012 RMK A01 T03240113  RH  028%=      5-min Rain = 0
KREE 122010Z 17012G18KT 33/11 A3012 RMK A01 T03250112  RH  028%=      5-min Rain = 0
KREE 122015Z 19013KT 32/11 A3012 RMK A01 T03200111  RH  028%=      5-min Rain = 0
KREE 122020Z 21011G19KT 32/11 A3011 RMK A01 T03180112  RH  029%=      5-min Rain = 0
KREE 122025Z 19013G18KT 32/11 A3011 RMK A01 T03180111  RH  029%=      5-min Rain = 0
KREE 122030Z 20010G17KT 32/11 A3011 RMK A01 T03170110  RH  029%=      5-min Rain = 0
KREE 122035Z 19010G16KT 32/11 A3011 RMK A01 T03200112  RH  029%=      5-min Rain = 0
KREE 122040Z 19012G18KT 32/11 A3011 RMK A01 T03190108  RH  028%=      5-min Rain = 0
KREE 122045Z 17009KT 32/11 A3011 RMK A01 T03190106  RH  027%=      5-min Rain = 0
KREE 122050Z 20011G16KT 32/11 A301 RMK A01 T03240106  RH  027%=      5-min Rain = 0
KREE 122055Z 18014G19KT 33/11 A301 RMK A01 T03310107  RH  026%=      5-min Rain = 0
KREE 122100Z 18011G17KT 33/11 A301 RMK A01 T03310108  RH  026%=      5-min Rain = 0
KREE 122105Z 16011G16KT 33/11 A3009 RMK A01 T03320109  RH  026%=      5-min Rain = 0
KREE 122110Z 16009KT 34/11 A3009 RMK A01 T03350109  RH  026%=      5-min Rain = 0
KREE 122115Z 16013G18KT 34/11 A3009 RMK A01 T03390110  RH  025%=      5-min Rain = 0
KREE 122120Z 16012KT 34/11 A3009 RMK A01 T03410107  RH  025%=      5-min Rain = 0
KREE 122125Z 19012KT 34/11 A3009 RMK A01 T03380109  RH  025%=      5-min Rain = 0
KREE 122130Z 20013G18KT 34/11 A3008 RMK A01 T03370109  RH  025%=      5-min Rain = 0
KREE 122135Z 18013G21KT 34/11 A3008 RMK A01 T03380105  RH  024%=      5-min Rain = 0
KREE 122140Z 18013G18KT 34/11 A3008 RMK A01 T03410106  RH  024%=      5-min Rain = 0
KREE 122145Z 16012G20KT 34/11 A3008 RMK A01 T03380105  RH  025%=      5-min Rain = 0
KREE 122150Z 19011G20KT 33/11 A3008 RMK A01 T03330106  RH  025%=      5-min Rain = 0
KREE 122155Z 19010G15KT 33/11 A3007 RMK A01 T03290107  RH  026%=      5-min Rain = 0
KREE 122200Z 17012G18KT 33/11 A3007 RMK A01 T03340108  RH  026%=      5-min Rain = 0
KREE 122205Z 19012KT 34/11 A3007 RMK A01 T03380108  RH  025%=      5-min Rain = 0
KREE 122210Z 19009KT 33/11 A3007 RMK A01 T03320108  RH  026%=      5-min Rain = 0
KREE 122215Z 18010G18KT 33/11 A3007 RMK A01 T03330108  RH  026%=      5-min Rain = 0
KREE 122220Z 16014G21KT 33/10 A3007 RMK A01 T03330103  RH  025%=      5-min Rain = 0
KREE 122225Z 17011KT 33/10 A3007 RMK A01 T03280102  RH  025%=      5-min Rain = 0
KREE 122230Z 16010KT 33/10 A3006 RMK A01 T03290101  RH  025%=      5-min Rain = 0
KREE 122235Z 15012G17KT 33/10 A3006 RMK A01 T03340102  RH  025%=      5-min Rain = 0
KREE 122240Z 17013G18KT 34/10 A3006 RMK A01 T03420103  RH  024%=      5-min Rain = 0
KREE 122245Z 17013G18KT 34/10 A3006 RMK A01 T03410100  RH  023%=      5-min Rain = 0
KREE 122250Z 17014G19KT 35/10 A3006 RMK A01 T03450098  RH  023%=      5-min Rain = 0
KREE 122255Z 15013KT 35/10 A3006 RMK A01 T03450098  RH  023%=      5-min Rain = 0
KREE 122300Z 16012KT 34/10 A3006 RMK A01 T03430100  RH  023%=      5-min Rain = 0
KREE 122305Z 16015G21KT 35/10 A3006 RMK A01 T03490100  RH  022%=      5-min Rain = 0
KREE 122310Z 17016KT 35/10 A3006 RMK A01 T03470098  RH  022%=      5-min Rain = 0
KREE 122315Z 17014G19KT 34/10 A3006 RMK A01 T03410096  RH  023%=      5-min Rain = 0
KREE 122320Z 17014KT 34/10 A3006 RMK A01 T03370095  RH  023%=      5-min Rain = 0
KREE 122325Z 17012KT 34/09 A3006 RMK A01 T03410093  RH  022%=      5-min Rain = 0
KREE 122330Z 17012G18KT 35/09 A3005 RMK A01 T03450093  RH  022%=      5-min Rain = 0
KREE 122335Z 17010KT 35/09 A3005 RMK A01 T03450091  RH  021%=      5-min Rain = 0
KREE 122340Z 18010KT 34/09 A3005 RMK A01 T03420088  RH  021%=      5-min Rain = 0
KREE 122345Z 18011KT 34/09 A3005 RMK A01 T03400091  RH  022%=      5-min Rain = 0
KREE 122350Z 20010G15KT 34/09 A3005 RMK A01 T03400092  RH  022%=      5-min Rain = 0
KREE 122355Z 20011G17KT 34/09 A3005 RMK A01 T03380086  RH  022%=      5-min Rain = 0
KREE 130000Z 19010G15KT 34/09 A3005 RMK A01 T03360090  RH  022%=      5-min Rain = 0
KREE 130005Z 20010KT 34/09 A3005 RMK A01 T03370089  RH  022%=      5-min Rain = 0
KREE 130010Z 18010G15KT 34/09 A3005 RMK A01 T03360091  RH  023%=      5-min Rain = 0
KREE 130015Z 19010KT 33/09 A3005 RMK A01 T03330089  RH  023%=      5-min Rain = 0
KREE 130020Z 19009KT 33/09 A3005 RMK A01 T03310089  RH  023%=      5-min Rain = 0
KREE 130025Z 18007KT 33/09 A3005 RMK A01 T03290089  RH  023%=      5-min Rain = 0
KREE 130030Z 16006G11KT 33/09 A3005 RMK A01 T03290091  RH  024%=      5-min Rain = 0
KREE 130035Z 11010KT 32/12 A3005 RMK A01 T03160116  RH  030%=      5-min Rain = 0
KREE 130040Z 11011KT 31/12 A3005 RMK A01 T03050123  RH  033%=      5-min Rain = 0
KREE 130045Z 11012KT 31/12 A3005 RMK A01 T03050119  RH  033%=      5-min Rain = 0
KREE 130050Z 10013KT 31/12 A3005 RMK A01 T03060117  RH  032%=      5-min Rain = 0
KREE 130055Z 10013KT 31/12 A3006 RMK A01 T03050116  RH  032%=      5-min Rain = 0
KREE 130100Z 10014KT 31/12 A3006 RMK A01 T03050118  RH  032%=      5-min Rain = 0
KREE 130105Z 10016KT 30/13 A3006 RMK A01 T02990126  RH  035%=      5-min Rain = 0
KREE 130110Z 10015KT 30/13 A3006 RMK A01 T02950130  RH  037%=      5-min Rain = 0
KREE 130115Z 11015KT 30/13 A3006 RMK A01 T02950130  RH  037%=      5-min Rain = 0
KREE 130120Z 10013KT 29/13 A3006 RMK A01 T02940128  RH  037%=      5-min Rain = 0
KREE 130125Z 10012KT 29/13 A3006 RMK A01 T02910130  RH  038%=      5-min Rain = 0
KREE 130130Z 11011KT 29/13 A3006 RMK A01 T02900132  RH  039%=      5-min Rain = 0
KREE 130135Z 10012KT 29/13 A3006 RMK A01 T02870134  RH  040%=      5-min Rain = 0
KREE 130140Z 10010KT 29/14 A3006 RMK A01 T02860135  RH  041%=      5-min Rain = 0
KREE 130145Z 10010KT 29/14 A3006 RMK A01 T02860135  RH  040%=      5-min Rain = 0
KREE 130150Z 10010KT 29/14 A3006 RMK A01 T02860135  RH  040%=      5-min Rain = 0
KREE 130155Z 10009KT 29/14 A3006 RMK A01 T02860135  RH  040%=      5-min Rain = 0
KREE 130200Z 10010KT 29/14 A3006 RMK A01 T02860136  RH  041%=      5-min Rain = 0
KREE 130205Z 10009KT 29/14 A3006 RMK A01 T02850136  RH  041%=      5-min Rain = 0
KREE 130210Z 10008KT 29/14 A3007 RMK A01 T02850136  RH  041%=      5-min Rain = 0
KREE 130215Z 09008KT 29/14 A3007 RMK A01 T02850137  RH  041%=      5-min Rain = 0
KREE 130220Z 10008KT 28/14 A3007 RMK A01 T02840138  RH  041%=      5-min Rain = 0
KREE 130225Z 10009KT 28/14 A3007 RMK A01 T02840138  RH  042%=      5-min Rain = 0
KREE 130230Z 10008KT 28/14 A3008 RMK A01 T02840138  RH  042%=      5-min Rain = 0
KREE 130235Z 10007KT 28/14 A3008 RMK A01 T02840138  RH  042%=      5-min Rain = 0
KREE 130240Z 10008KT 28/14 A3008 RMK A01 T02840139  RH  042%=      5-min Rain = 0
KREE 130245Z 10010G15KT 28/14 A3009 RMK A01 T02840139  RH  042%=      5-min Rain = 0
KREE 130250Z 11012KT 28/14 A3009 RMK A01 T02840140  RH  042%=      5-min Rain = 0
KREE 130255Z 11014KT 28/14 A3009 RMK A01 T02830142  RH  043%=      5-min Rain = 0
KREE 130300Z 10012KT 28/15 A301 RMK A01 T02800145  RH  045%=      5-min Rain = 0
KREE 130305Z 10011KT 28/15 A301 RMK A01 T02780146  RH  045%=      5-min Rain = 0
KREE 130310Z 10010KT 28/15 A301 RMK A01 T02770146  RH  046%=      5-min Rain = 0
KREE 130315Z 10011KT 28/15 A301 RMK A01 T02750147  RH  047%=      5-min Rain = 0
KREE 130320Z 10009KT 27/15 A301 RMK A01 T02740148  RH  047%=      5-min Rain = 0
KREE 130325Z 11009KT 27/15 A3011 RMK A01 T02730149  RH  048%=      5-min Rain = 0
KREE 130330Z 11009KT 27/15 A301 RMK A01 T02720149  RH  048%=      5-min Rain = 0
KREE 130335Z 12008KT 27/15 A301 RMK A01 T02720146  RH  047%=      5-min Rain = 0
KREE 130340Z 12012KT 28/13 A301 RMK A01 T02750134  RH  043%=      5-min Rain = 0
KREE 130345Z 12013KT 28/13 A301 RMK A01 T02750126  RH  040%=      5-min Rain = 0
KREE 130350Z 12012KT 27/13 A3011 RMK A01 T02730126  RH  041%=      5-min Rain = 0
KREE 130355Z 12013KT 27/13 A3011 RMK A01 T02720128  RH  041%=      5-min Rain = 0
KREE 130400Z 11015G21KT 27/13 A3012 RMK A01 T02720131  RH  043%=      5-min Rain = 0
KREE 130405Z 11018KT 27/13 A3012 RMK A01 T02690134  RH  044%=      5-min Rain = 0
KREE 130410Z 11016KT 27/13 A3012 RMK A01 T02660134  RH  045%=      5-min Rain = 0
KREE 130415Z 11016KT 26/14 A3012 RMK A01 T02640136  RH  046%=      5-min Rain = 0
KREE 130420Z 11013KT 26/14 A3012 RMK A01 T02600137  RH  048%=      5-min Rain = 0
KREE 130425Z 12013KT 26/14 A3012 RMK A01 T02590138  RH  048%=      5-min Rain = 0
KREE 130430Z 12015G20KT 26/14 A3012 RMK A01 T02570139  RH  049%=      5-min Rain = 0
KREE 130435Z 12014KT 26/14 A3012 RMK A01 T02560139  RH  049%=      5-min Rain = 0
KREE 130440Z 12012KT 25/14 A3012 RMK A01 T02540139  RH  050%=      5-min Rain = 0
KREE 130445Z 11014KT 25/14 A3013 RMK A01 T02520139  RH  050%=      5-min Rain = 0
KREE 130450Z 11013KT 25/14 A3013 RMK A01 T02510138  RH  050%=      5-min Rain = 0
KREE 130455Z 11013KT 25/14 A3012 RMK A01 T02500137  RH  050%=      5-min Rain = 0
KREE 130500Z 11013KT 25/14 A3012 RMK A01 T02490137  RH  051%=      5-min Rain = 0

Page generated in 0.0102 seconds.